Country
Station

 

Weather  for  Beaumont/Port Arthur, Jefferson County Airport  -  United States    United States

  
28 °C (82 °F)
    
 
 

Current METAR for Beaumont/Port Arthur, Jefferson County Airport is :

KBPT 211453Z 17017G30KT 10SM BKN029 28/22 A2975 RMK AO2 PK WND 15031/1442 SLP074 T02830222 50006

 

This is a report for Beaumont/Port Arthur, Jefferson County Airport - United States.
 
The report was made 56 minutes ago, at 14:53 UTC .
The wind was blowing at a speed of 8.7 meters per second (19.6 miles per hour) with gusts up to 15.4 meters per second (34.5 miles per hour) from south (170°).
 
The temperature was 28 °C (82 °F), with a dew-point at 22 °C (72 °F).
The temperature felt like 30 °C (86 °F).
 
The atmospheric pressure was 1007 hPa (29.75 inHg).
The relative humidity was 69.9%.
 
There were broken clouds at a height of 884 meters (2900 feet).
 
The overall visibility was 16.1 kilometers (10.0 miles).
 

 
 
 
 

Country :   A   B   C   D   E   F   G   H   I   J   K   L   M   N   O   P   Q   R   S   T   U   V   W   Y   Z

 

Site Info  |  Disclaimer  |  Credits  |  Privacy
Contact us  |  Add to favorites
© 2013-2019 METARs - All rights reserved